Time;durP1;ratioP1;P1;durP2;ratioP2;P2;SDS_P1;SDS_P2;PMS_P1;PMS_P2;Temp;Humidity;BMP_temperature;BMP_pressure;BME280_temperature;BME280_humidity;BME280_pressure;Samples;Min_cycle;Max_cycle;Signal;HPM_P1;HPM_P2
2022/03/04 00:01:39;;;;;;;;;;;;;;;4.06;59.41;99600.13;4433771;32;19985;-85
2022/03/04 00:04:05;;;;;;;;;;;;;;;4.07;59.41;99605.28;4435603;32;20004;-86
2022/03/04 00:06:30;;;;;;;;;;;;;;;3.80;59.40;99615.78;4436076;32;19986;-85
2022/03/04 00:08:55;;;;;;;;;;;;;;;3.98;59.41;99621.63;4416908;32;20100;-84
2022/03/04 00:11:20;;;;;;;;;;;;;;;3.84;59.40;99614.88;4419925;32;19989;-86
2022/03/04 00:13:46;;;;;;;;;;;;;;;3.66;59.38;99609.00;4419488;32;23299;-85
2022/03/04 00:16:11;;;;;;;;;;;;;;;3.47;59.38;99611.69;4420177;32;19988;-85
2022/03/04 00:18:36;;;;;;;;;;;;;;;3.42;59.37;99621.16;4429833;32;19995;-86
2022/03/04 00:21:02;;;;;;;;;;;;;;;3.55;59.38;99620.19;4421400;32;25379;-85
2022/03/04 00:23:27;;;;;;;;;;;;;;;3.57;59.38;99616.78;4417058;32;20009;-85
2022/03/04 00:25:52;;;;;;;;;;;;;;;3.74;59.38;99616.66;4431500;32;30289;-86
2022/03/04 00:28:17;;;;;;;;;;;;;;;3.84;59.40;99615.75;4435085;32;31443;-87
2022/03/04 00:30:42;;;;;;;;;;;;;;;3.85;59.40;99612.31;4417013;32;19986;-84
2022/03/04 00:33:08;;;;;;;;;;;;;;;3.89;59.40;99607.97;4433182;32;19989;-86
2022/03/04 00:35:33;;;;;;;;;;;;;;;4.03;59.41;99611.31;4438267;32;20000;-86
2022/03/04 00:37:58;;;;;;;;;;;;;;;4.13;59.42;99599.22;4419480;32;20012;-85
2022/03/04 00:40:23;;;;;;;;;;;;;;;4.11;59.41;99603.53;4410724;32;20049;-85
2022/03/04 00:42:49;;;;;;;;;;;;;;;4.13;59.41;99600.06;4433130;32;30730;-85
2022/03/04 00:45:14;;;;;;;;;;;;;;;4.14;59.42;99599.19;4417486;32;27936;-85
2022/03/04 00:47:39;;;;;;;;;;;;;;;4.45;59.43;99596.31;4431052;32;20004;-86
2022/03/04 00:50:05;;;;;;;;;;;;;;;4.51;59.44;99594.56;4429944;32;19982;-86
2022/03/04 00:52:30;;;;;;;;;;;;;;;4.39;59.43;99594.66;4409923;32;20760;-86
2022/03/04 00:54:56;;;;;;;;;;;;;;;4.61;59.44;99590.16;4432772;32;20024;-86
2022/03/04 00:57:21;;;;;;;;;;;;;;;4.55;59.43;99590.22;4436011;32;20376;-85
2022/03/04 00:59:46;;;;;;;;;;;;;;;4.48;59.43;99591.13;4435954;32;30284;-86
2022/03/04 01:02:11;;;;;;;;;;;;;;;4.55;59.44;99593.66;4432878;32;28550;-85
2022/03/04 01:04:37;;;;;;;;;;;;;;;4.64;59.45;99592.69;4410468;32;31804;-86
2022/03/04 01:07:02;;;;;;;;;;;;;;;4.52;59.44;99585.97;4434384;32;20012;-85
2022/03/04 01:09:27;;;;;;;;;;;;;;;4.42;59.44;99589.47;4430364;32;20001;-86
2022/03/04 01:11:53;;;;;;;;;;;;;;;4.57;59.44;99583.34;4434149;32;19985;-85
2022/03/04 01:14:18;;;;;;;;;;;;;;;4.67;59.45;99587.50;4430369;32;20005;-86
2022/03/04 01:16:43;;;;;;;;;;;;;;;4.60;59.44;99589.31;4432247;32;19999;-86
2022/03/04 01:19:08;;;;;;;;;;;;;;;4.78;59.45;99579.66;4429010;32;20044;-86
2022/03/04 01:21:34;;;;;;;;;;;;;;;4.70;59.45;99578.88;4421098;32;20389;-86
2022/03/04 01:23:59;;;;;;;;;;;;;;;4.82;59.46;99571.88;4428416;32;20150;-85
2022/03/04 01:26:24;;;;;;;;;;;;;;;4.87;59.46;99576.97;4430988;32;19993;-85
2022/03/04 01:28:50;;;;;;;;;;;;;;;4.88;59.46;99578.69;4419598;32;21053;-85
2022/03/04 01:31:15;;;;;;;;;;;;;;;5.01;59.47;99575.09;4427932;32;20008;-85
2022/03/04 01:33:40;;;;;;;;;;;;;;;5.08;59.47;99573.28;4432324;32;19983;-85
2022/03/04 01:36:05;;;;;;;;;;;;;;;5.16;59.47;99577.47;4417888;32;31585;-85
2022/03/04 01:38:31;;;;;;;;;;;;;;;5.07;59.47;99569.00;4432890;32;19992;-85
2022/03/04 01:40:56;;;;;;;;;;;;;;;5.19;59.48;99566.25;4409711;32;20380;-85
2022/03/04 01:43:21;;;;;;;;;;;;;;;5.33;59.49;99566.94;4433429;32;27560;-85
2022/03/04 01:45:46;;;;;;;;;;;;;;;5.30;59.48;99564.41;4416981;32;20313;-84
2022/03/04 01:48:12;;;;;;;;;;;;;;;5.35;59.48;99564.31;4433424;32;20008;-85
2022/03/04 01:50:37;;;;;;;;;;;;;;;5.24;59.47;99561.91;4429585;32;20342;-85
2022/03/04 01:53:02;;;;;;;;;;;;;;;5.27;59.48;99558.44;4416420;32;23680;-86
2022/03/04 01:55:28;;;;;;;;;;;;;;;5.29;59.47;99560.09;4430166;32;20286;-86
2022/03/04 01:57:53;;;;;;;;;;;;;;;5.36;59.48;99564.31;4419405;32;28538;-86
2022/03/04 02:00:18;;;;;;;;;;;;;;;5.48;59.49;99565.87;4433781;32;20005;-86
2022/03/04 02:02:44;;;;;;;;;;;;;;;5.43;59.49;99568.50;4419478;32;20352;-86
2022/03/04 02:05:13;;;;;;;;;;;;;;;5.53;59.50;99570.09;4433703;32;20262;-85
2022/03/04 02:07:38;;;;;;;;;;;;;;;5.59;59.50;99568.28;4426530;32;20042;-85
2022/03/04 02:10:03;;;;;;;;;;;;;;;5.62;59.50;99569.09;4426521;32;20017;-86
2022/03/04 02:12:28;;;;;;;;;;;;;;;5.68;59.51;99569.03;4433235;32;20031;-86
2022/03/04 02:14:54;;;;;;;;;;;;;;;5.60;59.49;99576.00;4413696;32;19984;-86
2022/03/04 02:17:19;;;;;;;;;;;;;;;5.78;59.51;99580.03;4430572;32;20031;-86
2022/03/04 02:19:45;;;;;;;;;;;;;;;5.81;59.51;99570.50;4431731;32;19977;-85
2022/03/04 02:22:10;;;;;;;;;;;;;;;5.64;59.50;99571.63;4429378;32;20044;-86
2022/03/04 02:24:35;;;;;;;;;;;;;;;5.63;59.50;99577.69;4415594;32;19993;-85
2022/03/04 02:27:01;;;;;;;;;;;;;;;5.63;59.50;99577.69;4416694;32;20016;-86
2022/03/04 02:29:26;;;;;;;;;;;;;;;5.39;59.49;99572.00;4428799;32;20370;-86
2022/03/04 02:31:51;;;;;;;;;;;;;;;5.49;59.49;99577.91;4418546;32;19977;-86
2022/03/04 02:34:17;;;;;;;;;;;;;;;5.41;59.49;99571.97;4428996;32;19997;-86
2022/03/04 02:36:42;;;;;;;;;;;;;;;5.41;59.48;99578.00;4421450;32;26603;-86
2022/03/04 02:39:08;;;;;;;;;;;;;;;5.45;59.49;99568.50;4419897;32;20036;-85
2022/03/04 02:41:36;;;;;;;;;;;;;;;5.50;59.49;99582.19;4434061;32;30181;-84
2022/03/04 02:44:01;;;;;;;;;;;;;;;5.48;59.49;99583.94;4429661;32;19994;-85
2022/03/04 02:46:27;;;;;;;;;;;;;;;5.33;59.48;99589.31;4429019;32;20004;-85
2022/03/04 02:48:52;;;;;;;;;;;;;;;5.30;59.47;99586.78;4433029;32;20002;-84
2022/03/04 02:51:17;;;;;;;;;;;;;;;5.40;59.48;99584.03;4431428;32;19985;-87
2022/03/04 02:53:42;;;;;;;;;;;;;;;5.37;59.48;99586.66;4433179;32;20024;-83
2022/03/04 02:56:08;;;;;;;;;;;;;;;5.42;59.49;99589.16;4432587;32;20322;-85
2022/03/04 02:58:33;;;;;;;;;;;;;;;5.34;59.48;99581.53;4429255;32;20028;-85
2022/03/04 03:00:58;;;;;;;;;;;;;;;5.33;59.49;99591.88;4419697;32;30731;-85
2022/03/04 03:03:23;;;;;;;;;;;;;;;5.31;59.48;99593.62;4434112;32;19981;-84
2022/03/04 03:05:49;;;;;;;;;;;;;;;5.32;59.49;99600.50;4436203;32;20333;-84
2022/03/04 03:08:14;;;;;;;;;;;;;;;5.24;59.48;99598.88;4433236;32;20278;-83
2022/03/04 03:10:39;;;;;;;;;;;;;;;5.28;59.48;99602.28;4432619;32;19999;-84
2022/03/04 03:13:04;;;;;;;;;;;;;;;5.17;59.47;99597.22;4434309;32;19986;-84
2022/03/04 03:15:30;;;;;;;;;;;;;;;4.98;59.46;99600.09;4434875;32;19966;-83
2022/03/04 03:17:55;;;;;;;;;;;;;;;5.02;59.47;99602.59;4433470;32;20022;-85
2022/03/04 03:20:20;;;;;;;;;;;;;;;5.09;59.47;99599.06;4433280;32;20012;-85
2022/03/04 03:22:45;;;;;;;;;;;;;;;5.05;59.47;99599.13;4417520;32;39858;-86
2022/03/04 03:25:12;;;;;;;;;;;;;;;4.91;59.46;99599.28;4431734;32;33821;-85
2022/03/04 03:27:37;;;;;;;;;;;;;;;4.93;59.46;99603.53;4420444;32;20005;-85
2022/03/04 03:30:03;;;;;;;;;;;;;;;4.93;59.46;99606.13;4416800;32;19985;-85
2022/03/04 03:32:28;;;;;;;;;;;;;;;4.89;59.46;99609.63;4433415;32;19969;-85
2022/03/04 03:34:53;;;;;;;;;;;;;;;4.83;59.45;99607.09;4433985;32;28651;-85
2022/03/04 03:37:18;;;;;;;;;;;;;;;4.76;59.45;99609.78;4435234;32;20337;-84
2022/03/04 03:39:44;;;;;;;;;;;;;;;4.79;59.46;99607.16;4424032;32;20270;-85
2022/03/04 03:42:09;;;;;;;;;;;;;;;4.88;59.46;99617.38;4436564;32;19993;-85
2022/03/04 03:44:34;;;;;;;;;;;;;;;4.85;59.45;99612.25;4431224;32;19974;-81
2022/03/04 03:46:59;;;;;;;;;;;;;;;4.87;59.46;99616.50;4428300;32;19993;-82
2022/03/04 03:49:25;;;;;;;;;;;;;;;4.87;59.46;99608.78;4433872;32;26222;-82
2022/03/04 03:51:50;;;;;;;;;;;;;;;4.81;59.46;99616.59;4434689;32;20004;-83
2022/03/04 03:54:15;;;;;;;;;;;;;;;4.81;59.46;99613.16;4434006;32;20277;-83
2022/03/04 03:56:41;;;;;;;;;;;;;;;4.81;59.45;99608.84;4416663;32;20019;-83
2022/03/04 03:59:06;;;;;;;;;;;;;;;4.75;59.45;99614.09;4432752;32;20005;-83
2022/03/04 04:01:31;;;;;;;;;;;;;;;4.70;59.44;99615.84;4421315;32;19974;-83
2022/03/04 04:03:57;;;;;;;;;;;;;;;4.70;59.45;99614.97;4436798;32;20338;-83
2022/03/04 04:06:23;;;;;;;;;;;;;;;4.85;59.45;99609.66;4432533;32;19973;-83
2022/03/04 04:08:48;;;;;;;;;;;;;;;4.84;59.45;99610.53;4416545;32;20025;-83
2022/03/04 04:11:13;;;;;;;;;;;;;;;4.83;59.45;99606.25;4421781;32;19981;-83
2022/03/04 04:13:38;;;;;;;;;;;;;;;4.82;59.45;99607.13;4430052;32;31534;-82
2022/03/04 04:16:04;;;;;;;;;;;;;;;4.86;59.45;99604.50;4432725;32;19996;-82
2022/03/04 04:18:29;;;;;;;;;;;;;;;4.86;59.45;99607.06;4430864;32;19994;-82
2022/03/04 04:20:55;;;;;;;;;;;;;;;4.85;59.45;99615.69;4433513;32;29813;-83
2022/03/04 04:23:20;;;;;;;;;;;;;;;4.89;59.45;99617.34;4430089;32;19969;-83
2022/03/04 04:25:45;;;;;;;;;;;;;;;4.86;59.45;99613.94;4431068;32;19997;-83
2022/03/04 04:28:10;;;;;;;;;;;;;;;4.79;59.46;99617.47;4435057;32;20311;-82
2022/03/04 04:30:35;;;;;;;;;;;;;;;4.75;59.45;99619.25;4434729;32;20001;-82
2022/03/04 04:33:01;;;;;;;;;;;;;;;4.75;59.45;99616.66;4433092;32;20025;-82
2022/03/04 04:35:26;;;;;;;;;;;;;;;4.73;59.45;99615.81;4421266;32;36166;-85
2022/03/04 04:37:51;;;;;;;;;;;;;;;4.77;59.44;99622.66;4432757;32;20016;-85
2022/03/04 04:40:16;;;;;;;;;;;;;;;4.69;59.44;99618.44;4428578;32;19981;-83
2022/03/04 04:42:42;;;;;;;;;;;;;;;4.46;59.43;99634.97;4433937;32;20014;-85
2022/03/04 04:45:08;;;;;;;;;;;;;;;4.51;59.43;99637.53;4425294;32;21859;-85
2022/03/04 04:47:33;;;;;;;;;;;;;;;4.45;59.43;99635.84;4435669;32;19994;-84
2022/03/04 04:49:58;;;;;;;;;;;;;;;4.71;59.44;99643.31;4432520;32;19981;-84
2022/03/04 04:52:23;;;;;;;;;;;;;;;4.44;59.43;99649.59;4436528;32;19974;-84
2022/03/04 04:54:48;;;;;;;;;;;;;;;4.20;59.42;99662.69;4432397;32;22107;-84
2022/03/04 04:57:14;;;;;;;;;;;;;;;4.25;59.41;99659.19;4436235;32;33203;-86
2022/03/04 04:59:39;;;;;;;;;;;;;;;4.08;59.41;99666.22;4417723;32;32321;-86
2022/03/04 05:02:04;;;;;;;;;;;;;;;4.07;59.41;99668.81;4432760;32;29903;-87
2022/03/04 05:04:29;;;;;;;;;;;;;;;3.81;59.39;99672.41;4412498;32;20058;-87
2022/03/04 05:06:55;;;;;;;;;;;;;;;3.98;59.41;99672.28;4434347;32;20335;-87
2022/03/04 05:09:20;;;;;;;;;;;;;;;3.95;59.40;99670.59;4412197;32;20348;-87
2022/03/04 05:11:46;;;;;;;;;;;;;;;3.95;59.40;99675.72;4418687;32;20389;-87
2022/03/04 05:14:11;;;;;;;;;;;;;;;3.80;59.39;99682.72;4434000;32;20017;-88
2022/03/04 05:16:36;;;;;;;;;;;;;;;3.89;59.39;99680.06;4414910;32;20025;-87
2022/03/04 05:19:01;;;;;;;;;;;;;;;3.91;59.40;99686.06;4420024;32;20247;-87
2022/03/04 05:21:27;;;;;;;;;;;;;;;3.86;59.40;99683.53;4417788;32;19998;-85
2022/03/04 05:24:02;;;;;;;;;;;;;;;3.70;59.39;99687.91;4428055;32;19997;-83
2022/03/04 05:26:31;;;;;;;;;;;;;;;3.76;59.39;99689.56;4413147;32;20009;-85
2022/03/04 05:28:56;;;;;;;;;;;;;;;3.78;59.39;99695.56;4433791;32;20066;-83
2022/03/04 05:31:22;;;;;;;;;;;;;;;3.80;59.39;99685.28;4432567;32;20337;-83
2022/03/04 05:33:47;;;;;;;;;;;;;;;4.01;59.40;99698.88;4432025;32;28114;-82
2022/03/04 05:36:12;;;;;;;;;;;;;;;3.89;59.40;99696.37;4421281;32;20307;-82
2022/03/04 05:38:37;;;;;;;;;;;;;;;3.92;59.40;99705.81;4424786;32;20085;-83
2022/03/04 05:41:03;;;;;;;;;;;;;;;3.92;59.40;99704.09;4432084;32;19977;-82
2022/03/04 05:43:28;;;;;;;;;;;;;;;3.94;59.40;99709.22;4422204;32;19998;-83
2022/03/04 05:45:53;;;;;;;;;;;;;;;4.18;59.41;99718.50;4413574;32;20026;-83
2022/03/04 05:48:18;;;;;;;;;;;;;;;4.30;59.42;99714.16;4416044;32;20319;-83
2022/03/04 05:50:44;;;;;;;;;;;;;;;4.38;59.42;99716.66;4419415;32;20041;-83
2022/03/04 05:53:09;;;;;;;;;;;;;;;4.39;59.42;99723.53;4431158;32;32108;-83
2022/03/04 05:55:34;;;;;;;;;;;;;;;4.41;59.42;99720.94;4434491;32;20012;-83
2022/03/04 05:57:59;;;;;;;;;;;;;;;4.19;59.41;99730.53;4418290;32;19977;-82
2022/03/04 06:00:26;;;;;;;;;;;;;;;4.20;59.42;99734.81;4434596;32;19978;-83
2022/03/04 06:02:51;;;;;;;;;;;;;;;4.25;59.41;99728.75;4432730;32;20611;-82
2022/03/04 06:05:16;;;;;;;;;;;;;;;4.15;59.41;99736.56;4420070;32;22674;-83
2022/03/04 06:07:41;;;;;;;;;;;;;;;4.39;59.42;99727.81;4434638;32;21165;-82
2022/03/04 06:10:07;;;;;;;;;;;;;;;4.51;59.43;99736.34;4426950;32;32843;-83
2022/03/04 06:12:32;;;;;;;;;;;;;;;4.52;59.44;99732.88;4434460;32;20019;-83
2022/03/04 06:14:57;;;;;;;;;;;;;;;4.48;59.43;99736.31;4434087;32;20005;-83
2022/03/04 06:17:23;;;;;;;;;;;;;;;4.40;59.42;99738.12;4428968;32;19992;-83
2022/03/04 06:19:48;;;;;;;;;;;;;;;4.56;59.43;99746.59;4431256;32;30519;-83
2022/03/04 06:22:13;;;;;;;;;;;;;;;4.49;59.44;99748.34;4428560;32;20254;-82
2022/03/04 06:24:38;;;;;;;;;;;;;;;4.41;59.43;99746.69;4423741;32;20309;-83
2022/03/04 06:27:04;;;;;;;;;;;;;;;4.48;59.43;99749.22;4431980;32;19974;-83
2022/03/04 06:29:29;;;;;;;;;;;;;;;4.69;59.45;99755.06;4432604;32;20369;-83
2022/03/04 06:31:54;;;;;;;;;;;;;;;4.70;59.44;99751.63;4431859;32;30956;-83
2022/03/04 06:34:19;;;;;;;;;;;;;;;4.66;59.44;99757.69;4421348;32;19995;-83
2022/03/04 06:36:45;;;;;;;;;;;;;;;4.74;59.45;99761.94;4435984;32;20005;-82
2022/03/04 06:39:10;;;;;;;;;;;;;;;4.81;59.45;99763.59;4433216;32;26564;-82
2022/03/04 06:41:36;;;;;;;;;;;;;;;4.73;59.45;99761.91;4435646;32;20005;-83
2022/03/04 06:44:01;;;;;;;;;;;;;;;4.93;59.46;99773.78;4432620;32;19996;-83
2022/03/04 06:46:26;;;;;;;;;;;;;;;4.92;59.45;99764.31;4432075;32;20066;-82
2022/03/04 06:48:51;;;;;;;;;;;;;;;4.94;59.46;99764.31;4426377;32;22019;-83
2022/03/04 06:51:17;;;;;;;;;;;;;;;5.24;59.47;99763.19;4435463;32;19978;-83
2022/03/04 06:53:42;;;;;;;;;;;;;;;5.22;59.47;99770.09;4431054;32;20019;-83
2022/03/04 06:56:07;;;;;;;;;;;;;;;5.26;59.48;99766.59;4435135;32;23471;-82
2022/03/04 06:58:32;;;;;;;;;;;;;;;5.36;59.48;99763.03;4431818;32;20005;-83
2022/03/04 07:00:58;;;;;;;;;;;;;;;5.59;59.49;99762.78;4425333;32;20004;-82
2022/03/04 07:03:23;;;;;;;;;;;;;;;5.60;59.49;99769.66;4434374;32;20100;-82
2022/03/04 07:05:49;;;;;;;;;;;;;;;5.65;59.50;99767.88;4437770;32;20362;-82
2022/03/04 07:08:14;;;;;;;;;;;;;;;5.81;59.50;99771.13;4432343;32;21057;-82
2022/03/04 07:10:40;;;;;;;;;;;;;;;6.04;59.51;99769.12;4432476;32;20020;-83
2022/03/04 07:13:06;;;;;;;;;;;;;;;6.13;59.53;99773.31;4424178;32;20001;-82
2022/03/04 07:15:31;;;;;;;;;;;;;;;6.21;59.54;99773.25;4434580;32;20330;-82
2022/03/04 07:17:56;;;;;;;;;;;;;;;6.34;59.54;99775.59;4433530;32;20115;-82
2022/03/04 07:20:21;;;;;;;;;;;;;;;6.59;59.56;99770.91;4434499;32;20293;-83
2022/03/04 07:22:47;;;;;;;;;;;;;;;6.65;59.56;99778.59;4431689;32;33369;-83
2022/03/04 07:25:13;;;;;;;;;;;;;;;6.54;59.55;99777.91;4433646;32;19989;-83
2022/03/04 07:27:38;;;;;;;;;;;;;;;6.51;59.55;99775.38;4430663;32;19986;-83
2022/03/04 07:30:04;;;;;;;;;;;;;;;6.62;59.55;99778.63;4425450;32;20001;-83
2022/03/04 07:32:30;;;;;;;;;;;;;;;6.64;59.55;99778.63;4432161;32;20028;-83
2022/03/04 07:34:55;;;;;;;;;;;;;;;6.78;59.56;99782.69;4437348;32;19996;-83
2022/03/04 07:37:21;;;;;;;;;;;;;;;6.96;59.58;99778.97;4428508;32;19998;-83
2022/03/04 07:39:46;;;;;;;;;;;;;;;6.90;59.57;99783.38;4437976;32;20330;-83
2022/03/04 07:42:11;;;;;;;;;;;;;;;6.92;59.57;99791.97;4424652;32;31193;-83
2022/03/04 07:44:36;;;;;;;;;;;;;;;6.84;59.57;99789.50;4432713;32;20314;-83
2022/03/04 07:47:02;;;;;;;;;;;;;;;7.07;59.57;99797.72;4431188;32;22563;-83
2022/03/04 07:49:27;;;;;;;;;;;;;;;7.21;59.59;99794.91;4430548;32;20062;-83
2022/03/04 07:51:52;;;;;;;;;;;;;;;7.29;59.60;99787.00;4435674;32;22150;-83
2022/03/04 07:54:18;;;;;;;;;;;;;;;7.33;59.59;99793.81;4433987;32;27078;-82
2022/03/04 07:56:43;;;;;;;;;;;;;;;7.39;59.59;99793.75;4435915;32;20393;-83
2022/03/04 07:59:09;;;;;;;;;;;;;;;7.48;59.61;99797.88;4434206;32;20002;-83
2022/03/04 08:01:34;;;;;;;;;;;;;;;7.36;59.59;99811.94;4419977;32;20044;-82
2022/03/04 08:03:59;;;;;;;;;;;;;;;6.83;59.56;99816.25;4435646;32;20402;-82
2022/03/04 08:06:24;;;;;;;;;;;;;;;6.69;59.55;99823.38;4437912;32;19996;-82
2022/03/04 08:08:49;;;;;;;;;;;;;;;6.59;59.56;99824.38;4430558;32;20001;-82
2022/03/04 08:11:15;;;;;;;;;;;;;;;6.63;59.55;99828.66;4436097;32;19977;-83
2022/03/04 08:13:40;;;;;;;;;;;;;;;6.66;59.56;99828.59;4432207;32;19989;-83
2022/03/04 08:16:05;;;;;;;;;;;;;;;6.67;59.56;99831.16;4422091;32;19976;-83
2022/03/04 08:18:30;;;;;;;;;;;;;;;6.56;59.54;99830.44;4428144;32;36119;-82
2022/03/04 08:20:56;;;;;;;;;;;;;;;6.51;59.55;99832.25;4436576;32;20012;-83
2022/03/04 08:23:21;;;;;;;;;;;;;;;6.64;59.56;99833.81;4430200;32;20286;-82
2022/03/04 08:25:46;;;;;;;;;;;;;;;6.53;59.55;99840.00;4430847;32;20028;-82
2022/03/04 08:28:11;;;;;;;;;;;;;;;6.40;59.54;99839.31;4435575;32;19988;-82
2022/03/04 08:30:37;;;;;;;;;;;;;;;6.28;59.54;99839.47;4427808;32;20362;-83
2022/03/04 08:33:02;;;;;;;;;;;;;;;6.31;59.54;99845.44;4435645;32;20077;-83
2022/03/04 08:35:27;;;;;;;;;;;;;;;6.38;59.54;99846.22;4436476;32;19989;-82
2022/03/04 08:37:53;;;;;;;;;;;;;;;6.17;59.52;99847.38;4432554;32;20009;-82
2022/03/04 08:40:18;;;;;;;;;;;;;;;6.11;59.52;99850.00;4428734;32;20001;-83
2022/03/04 08:42:43;;;;;;;;;;;;;;;6.07;59.52;99856.09;4434090;32;20035;-83
2022/03/04 08:45:09;;;;;;;;;;;;;;;6.17;59.52;99842.22;4433206;32;19998;-83
2022/03/04 08:47:35;;;;;;;;;;;;;;;6.18;59.53;99846.50;4431338;32;20012;-83
2022/03/04 08:50:00;;;;;;;;;;;;;;;6.19;59.52;99850.81;4417738;32;19994;-83
2022/03/04 08:52:25;;;;;;;;;;;;;;;6.41;59.54;99848.78;4436525;32;20223;-83
2022/03/04 08:54:51;;;;;;;;;;;;;;;6.47;59.54;99857.31;4431821;32;19981;-82
2022/03/04 08:57:16;;;;;;;;;;;;;;;6.68;59.56;99853.56;4423256;32;20030;-82
2022/03/04 08:59:41;;;;;;;;;;;;;;;6.79;59.56;99853.41;4434800;32;28308;-82
2022/03/04 09:02:06;;;;;;;;;;;;;;;6.91;59.57;99848.06;4431793;32;20024;-83
2022/03/04 09:04:31;;;;;;;;;;;;;;;7.04;59.58;99849.56;4436164;32;30245;-82
2022/03/04 09:06:57;;;;;;;;;;;;;;;6.91;59.57;99845.47;4436054;32;20013;-83
2022/03/04 09:09:22;;;;;;;;;;;;;;;7.17;59.58;99850.22;4430098;32;20302;-83
2022/03/04 09:11:47;;;;;;;;;;;;;;;7.34;59.59;99849.94;4435022;32;20029;-83
2022/03/04 09:14:12;;;;;;;;;;;;;;;7.55;59.61;99848.69;4433221;32;20028;-83
2022/03/04 09:16:38;;;;;;;;;;;;;;;7.77;59.63;99851.72;4433559;32;19977;-83
2022/03/04 09:19:03;;;;;;;;;;;;;;;7.88;59.62;99850.66;4428804;32;19985;-83
2022/03/04 09:21:28;;;;;;;;;;;;;;;8.16;59.64;99845.78;4432614;32;19974;-83
2022/03/04 09:23:54;;;;;;;;;;;;;;;8.35;59.64;99848.87;4428814;32;31141;-83
2022/03/04 09:26:19;;;;;;;;;;;;;;;8.46;59.66;99846.03;4431552;32;24433;-83
2022/03/04 09:28:44;;;;;;;;;;;;;;;8.52;59.66;99845.91;4419687;32;34980;-83
2022/03/04 09:31:09;;;;;;;;;;;;;;;8.72;59.67;99848.03;4422351;32;33497;-83
2022/03/04 09:33:35;;;;;;;;;;;;;;;8.82;59.68;99854.75;4434169;32;20004;-83
2022/03/04 09:36:00;;;;;;;;;;;;;;;8.87;59.68;99850.28;4429745;32;20298;-83
2022/03/04 09:38:26;;;;;;;;;;;;;;;8.91;59.69;99852.78;4421732;32;20029;-83
2022/03/04 09:40:51;;;;;;;;;;;;;;;9.20;59.70;99856.41;4430416;32;19985;-83
2022/03/04 09:43:18;;;;;;;;;;;;;;;9.20;59.70;99859.00;4420375;32;20028;-83
2022/03/04 09:45:47;;;;;;;;;;;;;;;9.15;59.70;99859.13;4429314;32;20335;-83
2022/03/04 09:48:12;;;;;;;;;;;;;;;9.20;59.70;99866.78;4431112;32;20008;-83
2022/03/04 09:50:37;;;;;;;;;;;;;;;9.26;59.70;99860.62;4431864;32;19977;-83
2022/03/04 09:53:08;;;;;;;;;;;;;;;9.39;59.71;99857.66;4434382;32;20019;-83
2022/03/04 09:55:34;;;;;;;;;;;;;;;9.37;59.71;99856.84;4418054;32;19985;-83
2022/03/04 09:57:59;;;;;;;;;;;;;;;9.71;59.72;99850.78;4432129;32;34938;-83
2022/03/04 10:00:24;;;;;;;;;;;;;;;9.89;59.74;99844.22;4437201;32;20020;-83
2022/03/04 10:02:49;;;;;;;;;;;;;;;9.87;59.73;99851.19;4419044;32;36632;-83
2022/03/04 10:05:15;;;;;;;;;;;;;;;9.85;59.73;99843.44;4426457;32;19997;-82
2022/03/04 10:07:44;;;;;;;;;;;;;;;9.91;59.74;99842.41;4428814;32;19986;-83
2022/03/04 10:10:17;;;;;;;;;;;;;;;10.00;59.75;99847.38;4413837;32;20056;-82
2022/03/04 10:12:46;;;;;;;;;;;;;;;10.08;59.74;99850.59;4420182;32;20016;-83
2022/03/04 10:15:11;;;;;;;;;;;;;;;10.26;59.76;99844.91;4435400;32;20003;-83
2022/03/04 10:17:36;;;;;;;;;;;;;;;10.18;59.76;99840.81;4431651;32;20377;-83
2022/03/04 10:20:06;;;;;;;;;;;;;;;10.27;59.76;99836.22;4435734;32;20000;-83
2022/03/04 10:22:36;;;;;;;;;;;;;;;10.29;59.76;99838.78;4428034;32;20031;-83
2022/03/04 10:25:07;;;;;;;;;;;;;;;10.18;59.76;99843.41;4421353;32;19994;-83
2022/03/04 10:27:33;;;;;;;;;;;;;;;9.73;59.73;99844.66;4434049;32;20338;-82
2022/03/04 10:29:58;;;;;;;;;;;;;;;9.81;59.74;99840.09;4431459;32;20013;-83
2022/03/04 10:32:26;;;;;;;;;;;;;;;9.80;59.74;99837.53;4433950;32;20004;-83
2022/03/04 10:34:52;;;;;;;;;;;;;;;9.89;59.74;99839.00;4434199;32;20004;-83
2022/03/04 10:37:21;;;;;;;;;;;;;;;9.78;59.73;99836.72;4435746;32;20368;-83
2022/03/04 10:39:56;;;;;;;;;;;;;;;9.94;59.75;99834.56;4438815;32;20024;-83
2022/03/04 10:42:36;;;;;;;;;;;;;;;9.44;59.71;99837.59;4424762;32;20047;-83
2022/03/04 10:45:07;;;;;;;;;;;;;;;9.50;59.72;99839.22;4434236;32;20002;-83
2022/03/04 10:47:42;;;;;;;;;;;;;;;9.15;59.70;99846.13;4432634;32;20000;-83
2022/03/04 10:50:08;;;;;;;;;;;;;;;9.21;59.70;99845.12;4430967;32;20083;-83
2022/03/04 10:52:33;;;;;;;;;;;;;;;9.30;59.71;99847.50;4426148;32;19981;-83
2022/03/04 10:54:58;;;;;;;;;;;;;;;9.35;59.71;99839.59;4433625;32;20128;-83
2022/03/04 10:57:23;;;;;;;;;;;;;;;9.36;59.71;99843.91;4437635;32;20017;-83
2022/03/04 10:59:55;;;;;;;;;;;;;;;9.63;59.72;99837.12;4434744;32;19986;-83
2022/03/04 11:02:37;;;;;;;;;;;;;;;9.77;59.73;99827.22;4434617;32;20276;-82
2022/03/04 11:05:02;;;;;;;;;;;;;;;9.87;59.73;99833.00;4421589;32;19994;-83
2022/03/04 11:07:28;;;;;;;;;;;;;;;9.57;59.71;99839.91;4435800;32;20033;-82
2022/03/04 11:09:53;;;;;;;;;;;;;;;9.49;59.72;99835.75;4428578;32;29592;-82
2022/03/04 11:12:20;;;;;;;;;;;;;;;9.44;59.71;99834.16;4434188;32;31043;-82
2022/03/04 11:14:45;;;;;;;;;;;;;;;8.90;59.69;99839.84;4414719;32;20009;-84
2022/03/04 11:17:10;;;;;;;;;;;;;;;8.82;59.68;99837.44;4431379;32;29569;-83
2022/03/04 11:19:36;;;;;;;;;;;;;;;8.87;59.68;99839.91;4420599;32;19998;-83
2022/03/04 11:22:01;;;;;;;;;;;;;;;9.03;59.69;99843.00;4432124;32;19997;-82
2022/03/04 11:24:29;;;;;;;;;;;;;;;8.99;59.69;99838.75;4434648;32;20021;-83
2022/03/04 11:26:55;;;;;;;;;;;;;;;9.00;59.69;99835.28;4430550;32;20011;-82
2022/03/04 11:29:34;;;;;;;;;;;;;;;9.36;59.71;99834.34;4436494;32;20000;-83
2022/03/04 11:31:59;;;;;;;;;;;;;;;9.54;59.72;99831.28;4429369;32;20604;-83
2022/03/04 11:34:46;;;;;;;;;;;;;;;9.61;59.72;99836.31;4435421;32;20334;-82
2022/03/04 11:37:15;;;;;;;;;;;;;;;9.26;59.70;99834.66;4430256;32;20000;-84
2022/03/04 11:39:59;;;;;;;;;;;;;;;9.25;59.70;99830.34;4433460;32;19977;-83
2022/03/04 11:42:26;;;;;;;;;;;;;;;9.30;59.71;99834.53;4436765;32;20009;-82
2022/03/04 11:44:52;;;;;;;;;;;;;;;9.40;59.71;99824.72;4431782;32;20007;-82
2022/03/04 11:47:17;;;;;;;;;;;;;;;9.34;59.71;99830.94;4431705;32;20011;-83
2022/03/04 11:49:43;;;;;;;;;;;;;;;9.22;59.71;99823.44;4428990;32;30402;-83
2022/03/04 11:52:12;;;;;;;;;;;;;;;9.51;59.72;99835.72;4422427;32;19981;-83
2022/03/04 11:54:44;;;;;;;;;;;;;;;9.71;59.73;99824.78;4418383;32;19994;-83
2022/03/04 11:57:16;;;;;;;;;;;;;;;9.64;59.73;99821.50;4434491;32;19992;-83
2022/03/04 11:59:50;;;;;;;;;;;;;;;9.52;59.72;99827.88;4432481;32;19986;-83
2022/03/04 12:02:19;;;;;;;;;;;;;;;9.47;59.71;99821.97;4422160;32;20023;-83
2022/03/04 12:04:44;;;;;;;;;;;;;;;9.22;59.70;99831.25;4423317;32;19990;-83
2022/03/04 12:07:09;;;;;;;;;;;;;;;9.23;59.70;99831.25;4422186;32;20000;-83
2022/03/04 12:09:35;;;;;;;;;;;;;;;9.11;59.69;99834.13;4429438;32;19992;-82
2022/03/04 12:12:11;;;;;;;;;;;;;;;8.99;59.69;99838.75;4420205;32;20314;-83
2022/03/04 12:14:37;;;;;;;;;;;;;;;8.99;59.69;99843.94;4431563;32;20051;-82
2022/03/04 12:17:02;;;;;;;;;;;;;;;8.64;59.67;99844.78;4420061;32;20008;-82
2022/03/04 12:19:28;;;;;;;;;;;;;;;8.47;59.65;99838.22;4431772;32;19969;-83
2022/03/04 12:21:55;;;;;;;;;;;;;;;8.58;59.66;99843.19;4433802;32;19982;-84
2022/03/04 12:24:27;;;;;;;;;;;;;;;8.60;59.67;99841.41;4418547;32;19994;-83
2022/03/04 12:26:52;;;;;;;;;;;;;;;8.55;59.67;99843.25;4430808;32;19986;-83
2022/03/04 12:29:17;;;;;;;;;;;;;;;8.50;59.66;99845.06;4421807;32;19977;-83
2022/03/04 12:31:44;;;;;;;;;;;;;;;8.36;59.64;99839.34;4428711;32;19988;-83
2022/03/04 12:34:18;;;;;;;;;;;;;;;8.28;59.65;99834.28;4434663;32;19990;-83
2022/03/04 12:36:44;;;;;;;;;;;;;;;8.38;59.66;99842.75;4431791;32;19989;-83
2022/03/04 12:39:09;;;;;;;;;;;;;;;8.59;59.67;99839.69;4434358;32;20031;-83
2022/03/04 12:41:34;;;;;;;;;;;;;;;8.65;59.67;99849.94;4436384;32;19958;-83
2022/03/04 12:44:00;;;;;;;;;;;;;;;8.61;59.67;99849.16;4432548;32;20037;-83
2022/03/04 12:46:26;;;;;;;;;;;;;;;8.80;59.67;99849.59;4430878;32;20080;-83
2022/03/04 12:48:52;;;;;;;;;;;;;;;8.91;59.69;99842.38;4433451;32;19996;-83
2022/03/04 12:51:28;;;;;;;;;;;;;;;9.15;59.69;99843.53;4434020;32;20006;-83